createdAt,value
2022-08-14T00:00:30.887Z,11.63
2022-08-14T00:03:29.174Z,8.93
2022-08-14T00:06:28.663Z,9.27
2022-08-14T00:09:19.924Z,9.10
2022-08-14T00:12:24.134Z,10.20
2022-08-14T00:15:17.032Z,9.13
2022-08-14T00:18:08.724Z,9.43
2022-08-14T00:21:11.399Z,9.33
2022-08-14T00:24:04.411Z,9.80
2022-08-14T00:26:55.055Z,8.60
2022-08-14T00:29:46.371Z,9.63
2022-08-14T00:32:52.791Z,8.73
2022-08-14T00:36:48.167Z,8.97
2022-08-14T00:38:58.874Z,9.07
2022-08-14T00:41:52.497Z,9.07
2022-08-14T00:44:43.236Z,9.17
2022-08-14T00:47:37.540Z,9.73
2022-08-14T00:50:35.985Z,9.33
2022-08-14T00:53:27.275Z,9.10
2022-08-14T00:56:18.339Z,9.50
2022-08-14T00:59:11.297Z,8.77
2022-08-14T01:02:02.671Z,10.27
2022-08-14T01:04:57.895Z,8.90
2022-08-14T01:07:54.190Z,8.87
2022-08-14T01:10:51.830Z,10.30
2022-08-14T01:13:43.608Z,9.00
2022-08-14T01:16:36.003Z,9.20
2022-08-14T01:19:46.798Z,9.77
2022-08-14T01:22:40.399Z,8.47
2022-08-14T01:25:34.213Z,9.47
2022-08-14T01:28:46.831Z,8.87
2022-08-14T01:31:39.361Z,10.97
2022-08-14T01:35:19.194Z,10.33
2022-08-14T01:37:54.407Z,8.97
2022-08-14T01:40:47.620Z,9.10
2022-08-14T01:43:56.714Z,9.57
2022-08-14T01:46:47.738Z,9.90
2022-08-14T01:50:00.071Z,9.03
2022-08-14T01:52:58.760Z,9.57
2022-08-14T01:55:51.596Z,8.77
2022-08-14T01:58:57.481Z,9.33
2022-08-14T02:01:58.480Z,8.90
2022-08-14T02:04:56.858Z,8.67
2022-08-14T02:07:55.859Z,9.00
2022-08-14T02:11:22.363Z,8.83
2022-08-14T02:14:14.895Z,9.30
2022-08-14T02:17:23.717Z,9.73
2022-08-14T02:20:14.496Z,9.50
2022-08-14T02:23:05.528Z,9.93
2022-08-14T02:26:18.163Z,9.50
2022-08-14T02:29:14.344Z,10.17
2022-08-14T02:32:05.901Z,9.67
2022-08-14T02:34:58.006Z,10.07
2022-08-14T02:37:51.711Z,9.60
2022-08-14T02:40:42.923Z,9.00
2022-08-14T02:43:46.417Z,9.53
2022-08-14T02:46:41.224Z,9.07
2022-08-14T02:49:34.988Z,9.87
2022-08-14T02:52:57.762Z,9.63
2022-08-14T02:55:39.001Z,9.47
2022-08-14T02:58:31.192Z,9.73
2022-08-14T03:01:31.010Z,10.07
2022-08-14T03:04:22.951Z,9.37
2022-08-14T03:07:17.043Z,9.57
2022-08-14T03:10:27.710Z,8.93
2022-08-14T03:13:21.107Z,9.80
2022-08-14T03:16:19.916Z,10.53
2022-08-14T03:19:19.552Z,10.03
2022-08-14T03:22:17.631Z,9.70
2022-08-14T03:25:09.989Z,10.10
2022-08-14T03:28:03.795Z,10.00
2022-08-14T03:30:54.871Z,9.77
2022-08-14T03:33:51.595Z,10.47
2022-08-14T03:37:51.793Z,9.93
2022-08-14T03:39:55.596Z,9.97
2022-08-14T03:42:46.923Z,10.13
2022-08-14T03:45:40.471Z,9.67
2022-08-14T03:48:40.949Z,9.53
2022-08-14T03:51:31.950Z,10.10
2022-08-14T03:54:24.393Z,9.90
2022-08-14T03:57:15.054Z,10.53
2022-08-14T04:00:08.969Z,10.73
2022-08-14T04:03:06.508Z,9.63
2022-08-14T04:05:58.173Z,11.27
2022-08-14T04:08:49.981Z,10.37
2022-08-14T04:11:42.433Z,10.03
2022-08-14T04:14:33.588Z,10.77
2022-08-14T04:17:29.533Z,9.73
2022-08-14T04:20:25.813Z,10.57
2022-08-14T04:23:23.528Z,10.87
2022-08-14T04:26:26.946Z,10.20
2022-08-14T04:29:19.734Z,9.67
2022-08-14T04:32:58.391Z,10.47
2022-08-14T04:35:23.806Z,10.53
2022-08-14T04:38:37.162Z,10.83
2022-08-14T04:41:47.390Z,12.33
2022-08-14T04:44:39.661Z,10.50
2022-08-14T04:47:53.642Z,11.10
2022-08-14T04:50:54.072Z,10.90
2022-08-14T04:53:46.559Z,11.30
2022-08-14T04:56:39.088Z,10.30
2022-08-14T04:59:34.027Z,10.37
2022-08-14T05:02:28.333Z,11.90
2022-08-14T05:05:20.826Z,10.50
2022-08-14T05:08:31.953Z,11.37
2022-08-14T05:11:23.289Z,11.00
2022-08-14T05:14:46.676Z,11.20
2022-08-14T05:17:43.612Z,10.43
2022-08-14T05:21:54.860Z,11.30
2022-08-14T05:23:46.456Z,11.23
2022-08-14T05:26:42.122Z,10.43
2022-08-14T05:29:33.389Z,11.47
2022-08-14T05:32:27.535Z,11.10
2022-08-14T05:35:20.637Z,11.17
2022-08-14T05:38:22.235Z,12.83
2022-08-14T05:41:22.194Z,11.50
2022-08-14T05:44:13.150Z,11.43
2022-08-14T05:47:04.375Z,11.43
2022-08-14T05:49:55.315Z,10.80
2022-08-14T05:52:48.060Z,11.60
2022-08-14T05:55:44.271Z,10.83
2022-08-14T05:58:41.470Z,12.97
2022-08-14T06:01:33.121Z,10.83
2022-08-14T06:04:24.225Z,10.70
2022-08-14T06:07:16.534Z,10.93
2022-08-14T06:10:10.755Z,11.73
2022-08-14T06:13:04.932Z,11.27
2022-08-14T06:15:55.631Z,10.43
2022-08-14T06:18:52.592Z,10.43
2022-08-14T06:21:44.246Z,11.03
2022-08-14T06:24:35.808Z,12.53
2022-08-14T06:27:34.131Z,11.27
2022-08-14T06:30:30.442Z,10.93
2022-08-14T06:35:09.677Z,11.57
2022-08-14T06:36:48.909Z,10.57
2022-08-14T06:39:39.735Z,10.73
2022-08-14T06:42:36.830Z,10.33
2022-08-14T06:45:28.528Z,11.10
2022-08-14T06:48:21.514Z,10.87
2022-08-14T06:51:12.609Z,11.20
2022-08-14T06:54:03.366Z,11.20
2022-08-14T06:56:57.083Z,10.77
2022-08-14T06:59:49.929Z,10.23
2022-08-14T07:03:00.003Z,10.13
2022-08-14T07:05:55.922Z,10.53
2022-08-14T07:08:50.670Z,10.87
2022-08-14T07:11:42.363Z,10.57
2022-08-14T07:14:33.126Z,10.17
2022-08-14T07:17:25.420Z,14.37
2022-08-14T07:20:20.492Z,10.27
2022-08-14T07:23:23.843Z,10.33
2022-08-14T07:26:14.997Z,10.17
2022-08-14T07:29:06.291Z,10.30
2022-08-14T07:31:58.192Z,9.83
2022-08-14T07:34:50.577Z,9.47
2022-08-14T07:37:42.153Z,10.80
2022-08-14T07:40:34.414Z,10.20
2022-08-14T07:43:26.483Z,9.83
2022-08-14T07:46:21.142Z,9.60
2022-08-14T07:49:20.172Z,9.60
2022-08-14T07:52:12.844Z,9.77
2022-08-14T07:55:04.765Z,9.23
2022-08-14T07:57:56.502Z,9.10
2022-08-14T08:00:51.446Z,11.77
2022-08-14T08:03:51.924Z,9.57
2022-08-14T08:06:51.036Z,9.23
2022-08-14T08:09:48.976Z,9.40
2022-08-14T08:12:44.418Z,9.63
2022-08-14T08:15:37.293Z,9.67
2022-08-14T08:18:29.158Z,10.00
2022-08-14T08:21:22.287Z,9.80
2022-08-14T08:24:19.777Z,12.73
2022-08-14T08:27:17.199Z,9.68
2022-08-14T08:30:10.315Z,9.20
2022-08-14T08:33:02.969Z,9.32
2022-08-14T08:35:54.735Z,9.07
2022-08-14T08:39:15.675Z,10.00
2022-08-14T08:41:56.901Z,10.57
2022-08-14T08:44:55.665Z,8.63
2022-08-14T08:47:47.262Z,8.88
2022-08-14T08:53:32.315Z,8.07
2022-08-14T08:56:39.661Z,9.98
2022-08-14T08:59:34.047Z,10.75
2022-08-14T09:02:27.706Z,8.38
2022-08-14T09:05:19.087Z,8.35
2022-08-14T09:08:30.407Z,8.20
2022-08-14T09:11:24.265Z,8.60
2022-08-14T09:14:15.110Z,7.13
2022-08-14T09:17:09.679Z,9.68
2022-08-14T09:20:04.249Z,7.03
2022-08-14T09:22:56.700Z,9.18
2022-08-14T09:25:59.142Z,8.10
2022-08-14T09:28:52.442Z,9.25
2022-08-14T09:31:53.385Z,7.85
2022-08-14T09:34:58.971Z,9.50
2022-08-14T09:37:59.696Z,7.93
2022-08-14T09:40:55.648Z,9.95
2022-08-14T09:43:50.687Z,9.35
2022-08-14T09:46:52.750Z,7.75
2022-08-14T09:49:43.971Z,7.80
2022-08-14T09:52:52.799Z,8.90
2022-08-14T09:55:58.689Z,6.75
2022-08-14T09:58:49.838Z,8.68
2022-08-14T10:01:41.274Z,6.78
2022-08-14T10:04:38.447Z,6.80
2022-08-14T10:07:32.208Z,7.18
2022-08-14T10:10:34.676Z,6.80
2022-08-14T10:13:27.408Z,6.78
2022-08-14T10:16:42.127Z,6.68
2022-08-14T10:19:35.955Z,6.20
2022-08-14T10:23:15.335Z,6.68
2022-08-14T10:25:41.253Z,7.78
2022-08-14T10:29:19.050Z,5.75
2022-08-14T10:31:59.002Z,7.60
2022-08-14T10:34:52.898Z,8.48
2022-08-14T10:37:46.568Z,6.47
2022-08-14T10:40:44.571Z,6.00
2022-08-14T10:43:45.335Z,5.70
2022-08-14T10:47:40.510Z,5.60
2022-08-14T10:49:58.064Z,8.13
2022-08-14T10:52:57.661Z,5.65
2022-08-14T10:55:49.244Z,7.32
2022-08-14T10:58:41.529Z,7.53
2022-08-14T11:01:40.980Z,6.18
2022-08-14T11:04:33.926Z,6.03
2022-08-14T11:07:29.100Z,7.78
2022-08-14T11:10:19.799Z,7.72
2022-08-14T11:13:10.663Z,6.82
2022-08-14T11:16:02.064Z,6.05
2022-08-14T11:18:59.552Z,8.98
2022-08-14T11:21:51.710Z,7.55
2022-08-14T11:24:54.270Z,6.20
2022-08-14T11:27:49.095Z,7.38
2022-08-14T11:30:51.587Z,5.95
2022-08-14T11:33:44.216Z,7.05
2022-08-14T11:37:02.286Z,15.82
2022-08-14T11:39:48.554Z,6.72
2022-08-14T11:43:06.364Z,8.90
2022-08-14T11:45:57.077Z,8.93
2022-08-14T11:49:02.359Z,7.75
2022-08-14T11:51:57.146Z,5.38
2022-08-14T11:54:57.646Z,11.00
2022-08-14T11:58:00.187Z,5.63
2022-08-14T12:00:54.020Z,8.07
2022-08-14T12:03:57.060Z,7.65
2022-08-14T12:06:51.559Z,5.72
2022-08-14T12:09:45.054Z,6.75
2022-08-14T12:12:38.854Z,6.35
2022-08-14T12:15:34.799Z,6.53
2022-08-14T12:18:30.144Z,5.93
2022-08-14T12:21:22.239Z,5.90
2022-08-14T12:24:36.254Z,5.68
2022-08-14T12:27:35.231Z,6.28
2022-08-14T12:30:39.367Z,5.60
2022-08-14T12:33:33.673Z,7.95
2022-08-14T12:36:25.302Z,6.05
2022-08-14T12:39:21.125Z,6.53
2022-08-14T12:42:27.358Z,5.63
2022-08-14T12:45:33.129Z,5.85
2022-08-14T12:48:32.343Z,7.07
2022-08-14T12:51:27.256Z,8.60
2022-08-14T12:54:28.152Z,5.90
2022-08-14T12:57:20.714Z,5.57
2022-08-14T13:00:22.979Z,6.95
2022-08-14T13:03:24.930Z,6.55
2022-08-14T13:06:20.439Z,5.78
2022-08-14T13:09:12.296Z,6.35
2022-08-14T13:12:31.769Z,5.63
2022-08-14T13:15:19.526Z,6.75
2022-08-14T13:18:12.287Z,7.28
2022-08-14T13:21:05.600Z,5.75
2022-08-14T13:23:56.720Z,5.50
2022-08-14T13:26:51.253Z,9.80
2022-08-14T13:29:46.991Z,6.35
2022-08-14T13:32:40.471Z,5.65
2022-08-14T13:35:31.603Z,5.65
2022-08-14T13:38:25.528Z,5.22
2022-08-14T13:41:31.429Z,6.97
2022-08-14T13:44:26.879Z,5.43
2022-08-14T13:47:20.037Z,5.55
2022-08-14T13:50:14.004Z,5.68
2022-08-14T13:53:13.315Z,5.72
2022-08-14T13:56:06.643Z,5.72
2022-08-14T13:59:06.371Z,6.80
2022-08-14T14:01:57.672Z,8.32
2022-08-14T14:04:49.999Z,5.55
2022-08-14T14:07:46.185Z,5.95
2022-08-14T14:10:39.237Z,7.47
2022-08-14T14:13:32.441Z,5.55
2022-08-14T14:16:30.940Z,5.38
2022-08-14T14:19:23.491Z,5.30
2022-08-14T14:23:00.867Z,5.40
2022-08-14T14:25:46.382Z,4.93
2022-08-14T14:28:41.474Z,5.20
2022-08-14T14:31:33.752Z,5.13
2022-08-14T14:34:30.382Z,4.68
2022-08-14T14:37:22.690Z,5.03
2022-08-14T14:40:54.631Z,5.00
2022-08-14T14:43:27.408Z,6.82
2022-08-14T14:46:21.103Z,4.80
2022-08-14T14:49:14.557Z,4.85
2022-08-14T14:52:06.700Z,6.82
2022-08-14T14:54:58.850Z,5.30
2022-08-14T14:57:52.145Z,8.48
2022-08-14T15:00:46.397Z,7.63
2022-08-14T15:03:43.993Z,4.80
2022-08-14T15:06:35.137Z,4.93
2022-08-14T15:09:25.847Z,6.78
2022-08-14T15:12:55.318Z,7.78
2022-08-14T15:15:28.281Z,4.55
2022-08-14T15:18:37.496Z,4.85
2022-08-14T15:21:32.290Z,5.30
2022-08-14T15:24:26.595Z,4.05
2022-08-14T15:27:26.216Z,4.30
2022-08-14T15:30:23.711Z,4.55
2022-08-14T15:33:15.333Z,4.38
2022-08-14T15:36:06.645Z,4.78
2022-08-14T15:39:17.776Z,5.22
2022-08-14T15:42:15.722Z,6.55
2022-08-14T15:45:11.691Z,4.18
2022-08-14T15:48:02.755Z,6.43
2022-08-14T15:50:55.071Z,6.80
2022-08-14T15:53:46.619Z,5.20
2022-08-14T15:56:43.055Z,5.13
2022-08-14T15:59:48.775Z,4.97
2022-08-14T16:02:40.915Z,4.72
2022-08-14T16:05:38.289Z,5.03
2022-08-14T16:08:30.838Z,4.28
2022-08-14T16:11:22.396Z,5.38
2022-08-14T16:14:14.592Z,4.40
2022-08-14T16:17:13.835Z,5.20
2022-08-14T16:20:05.749Z,4.13
2022-08-14T16:23:00.439Z,6.88
2022-08-14T16:25:52.749Z,6.63
2022-08-14T16:28:44.235Z,4.40
2022-08-14T16:31:37.363Z,4.75
2022-08-14T16:34:46.112Z,5.25
2022-08-14T16:37:41.217Z,4.43
2022-08-14T16:40:35.233Z,4.22
2022-08-14T16:43:34.599Z,3.90
2022-08-14T16:46:26.091Z,4.57
2022-08-14T16:49:18.525Z,6.38
2022-08-14T16:52:26.174Z,6.00
2022-08-14T16:55:30.133Z,5.72
2022-08-14T16:58:29.641Z,4.78
2022-08-14T17:01:25.077Z,4.78
2022-08-14T17:04:24.915Z,4.95
2022-08-14T17:07:16.562Z,4.88
2022-08-14T17:10:09.863Z,4.95
2022-08-14T17:13:17.189Z,4.93
2022-08-14T17:16:11.495Z,5.10
2022-08-14T17:19:17.755Z,5.93
2022-08-14T17:22:12.125Z,9.82
2022-08-14T17:25:05.217Z,5.95
2022-08-14T17:28:51.535Z,6.15
2022-08-14T17:31:21.751Z,7.88
2022-08-14T17:34:18.235Z,7.47
2022-08-14T17:37:18.102Z,7.22
2022-08-14T17:40:14.924Z,6.18
2022-08-14T17:43:07.123Z,5.88
2022-08-14T17:45:58.353Z,6.10
2022-08-14T17:49:14.753Z,5.57
2022-08-14T17:52:03.793Z,6.13
2022-08-14T17:55:00.608Z,6.65
2022-08-14T17:57:54.616Z,6.32
2022-08-14T18:00:46.111Z,6.30
2022-08-14T18:03:51.232Z,7.28
2022-08-14T18:06:57.966Z,6.95
2022-08-14T18:09:57.844Z,7.95
2022-08-14T18:12:50.038Z,6.25
2022-08-14T18:15:44.974Z,7.18
2022-08-14T18:18:44.535Z,7.63
2022-08-14T18:21:56.312Z,7.13
2022-08-14T18:24:47.911Z,7.70
2022-08-14T18:27:41.689Z,7.00
2022-08-14T18:30:40.607Z,7.75
2022-08-14T18:33:52.591Z,9.65
2022-08-14T18:36:47.129Z,11.38
2022-08-14T18:40:01.224Z,9.02
2022-08-14T18:42:57.153Z,8.32
2022-08-14T18:45:59.318Z,8.73
2022-08-14T18:49:13.845Z,6.95
2022-08-14T18:52:19.007Z,8.50
2022-08-14T18:55:28.530Z,9.23
2022-08-14T18:58:31.072Z,8.98
2022-08-14T19:01:23.683Z,7.63
2022-08-14T19:04:36.023Z,8.23
2022-08-14T19:07:28.297Z,6.97
2022-08-14T19:10:31.918Z,6.97
2022-08-14T19:13:44.840Z,6.85
2022-08-14T19:16:53.472Z,8.00
2022-08-14T19:20:03.449Z,7.30
2022-08-14T19:22:56.266Z,9.13
2022-08-14T19:25:52.121Z,10.07
2022-08-14T19:28:44.561Z,9.15
2022-08-14T19:31:42.073Z,13.45
2022-08-14T19:34:35.299Z,8.05
2022-08-14T19:37:48.099Z,7.80
2022-08-14T19:40:42.031Z,10.68
2022-08-14T19:43:55.221Z,8.38
2022-08-14T19:47:01.885Z,8.10
2022-08-14T19:50:07.438Z,8.05
2022-08-14T19:53:11.264Z,7.75
2022-08-14T19:56:03.593Z,9.55
2022-08-14T19:58:57.586Z,8.73
2022-08-14T20:01:51.062Z,9.23
2022-08-14T20:04:45.918Z,8.40
2022-08-14T20:08:00.428Z,8.15
2022-08-14T20:11:04.171Z,8.20
2022-08-14T20:14:09.406Z,8.38
2022-08-14T20:17:06.129Z,8.43
2022-08-14T20:19:57.872Z,8.25
2022-08-14T20:22:51.146Z,10.63
2022-08-14T20:25:56.561Z,9.93
2022-08-14T20:28:51.424Z,9.85
2022-08-14T20:31:43.018Z,9.98
2022-08-14T20:34:36.276Z,10.45
2022-08-14T20:37:27.472Z,9.15
2022-08-14T20:40:23.280Z,10.90
2022-08-14T20:43:36.284Z,8.43
2022-08-14T20:46:31.339Z,9.05
2022-08-14T20:49:28.461Z,10.98
2022-08-14T20:52:21.124Z,8.75
2022-08-14T20:55:21.999Z,11.95
2022-08-14T20:58:44.868Z,10.45
2022-08-14T21:01:38.511Z,10.18
2022-08-14T21:04:30.700Z,8.70
2022-08-14T21:07:36.147Z,8.65
2022-08-14T21:10:36.261Z,9.70
2022-08-14T21:14:20.717Z,8.77
2022-08-14T21:16:59.110Z,13.23
2022-08-14T21:19:50.688Z,9.00
2022-08-14T21:22:44.597Z,9.77
2022-08-14T21:25:42.492Z,9.68
2022-08-14T21:28:35.047Z,11.43
2022-08-14T21:31:26.852Z,11.07
2022-08-14T21:34:30.990Z,11.43
2022-08-14T21:37:23.583Z,11.03
2022-08-14T21:40:33.211Z,10.40
2022-08-14T21:43:30.791Z,10.50
2022-08-14T21:46:21.907Z,10.67
2022-08-14T21:49:13.525Z,11.13
2022-08-14T21:52:49.136Z,9.70
2022-08-14T21:55:23.286Z,10.20
2022-08-14T21:58:52.921Z,11.43
2022-08-14T22:01:27.770Z,12.17
2022-08-14T22:04:41.360Z,10.53
2022-08-14T22:07:34.217Z,12.10
2022-08-14T22:10:25.989Z,13.77
2022-08-14T22:13:21.414Z,10.87
2022-08-14T22:16:59.791Z,9.90
2022-08-14T22:19:43.323Z,12.03
2022-08-14T22:22:37.342Z,11.77
2022-08-14T22:25:33.504Z,13.40
2022-08-14T22:28:32.374Z,10.10
2022-08-14T22:31:24.623Z,11.77
2022-08-14T22:34:25.993Z,13.33
2022-08-14T22:37:20.293Z,9.97
2022-08-14T22:40:56.678Z,10.33
2022-08-14T22:43:25.203Z,13.33
2022-08-14T22:46:20.476Z,12.40
2022-08-14T22:49:16.646Z,11.60
2022-08-14T22:52:32.505Z,11.57
2022-08-14T22:55:27.299Z,11.17
2022-08-14T22:58:18.065Z,12.90
2022-08-14T23:01:12.594Z,10.30
2022-08-14T23:04:03.875Z,11.17
2022-08-14T23:07:02.993Z,13.20
2022-08-14T23:10:32.878Z,12.87
2022-08-14T23:13:14.994Z,16.17
2022-08-14T23:16:08.399Z,11.67
2022-08-14T23:18:59.510Z,10.63
2022-08-14T23:21:52.101Z,11.47
2022-08-14T23:24:44.345Z,11.67
2022-08-14T23:28:03.732Z,12.07
2022-08-14T23:30:51.131Z,13.97
2022-08-14T23:33:46.017Z,13.20
2022-08-14T23:36:53.188Z,12.43
2022-08-14T23:39:44.853Z,12.03
2022-08-14T23:42:50.346Z,12.00
2022-08-14T23:45:43.197Z,12.47
2022-08-14T23:48:36.160Z,12.90
2022-08-14T23:51:28.311Z,12.37
2022-08-14T23:54:48.208Z,12.33
2022-08-14T23:57:43.961Z,13.70
